This is the latest recevied weather packets stored in our database for station/object AB8Y-13. If no packets are shown the sender has not sent any weather packets the latest 1 day(s).
| Time | Temp. | Humidity | Pressure | Rain* | Wind** | Luminosity | Snow |
|---|---|---|---|---|---|---|---|
| 1778111137 | 10° C | 50% | 1012.4 hPa | 0 mm | - | 31 W/m² | - |
| 1778109619 | 10.56° C | 41% | 1012 hPa | 0 mm | - | 35 W/m² | - |
| 1778109317 | 11.11° C | 45% | 1012.2 hPa | 0 mm | - | 52 W/m² | - |
| 1778109015 | 11.11° C | 40% | 1012.2 hPa | 0 mm | - | 69 W/m² | - |
| 1778104768 | 11.67° C | 41% | 1012.4 hPa | 0 mm | - | 181 W/m² | - |
| 1778103555 | 11.67° C | 43% | 1012.4 hPa | 0 mm | - | 220 W/m² | - |
| 1778102340 | 11.67° C | 43% | 1012.3 hPa | 0 mm | - | 390 W/m² | - |
| 1778101734 | 12.22° C | 41% | 1012.3 hPa | 0 mm | - | 204 W/m² | - |
| 1778097793 | 11.67° C | 37% | 1012.6 hPa | 0 mm | - | 310 W/m² | - |
| 1778096884 | 11.67° C | 39% | 1012.7 hPa | 0 mm | - | 304 W/m² | - |
| 1778096580 | 12.22° C | 37% | 1012.8 hPa | 0 mm | - | 268 W/m² | - |
| 1778096278 | 12.22° C | 39% | 1013 hPa | 0 mm | - | 357 W/m² | - |
| 1778094458 | 11.67° C | 44% | 1012.9 hPa | 0 mm | - | 445 W/m² | - |
| 1778090214 | 10.56° C | 45% | 1013.2 hPa | 0 mm | - | 399 W/m² | - |
| 1778088998 | 10.56° C | 44% | 1013.6 hPa | 0 mm | - | 266 W/m² | - |
| 1778087483 | 10.56° C | 44% | 1013.5 hPa | 0 mm | - | 368 W/m² | - |
| 1778085666 | 10.56° C | 48% | 1013.4 hPa | 0 mm | - | 372 W/m² | - |
| 1778085058 | 11.67° C | 46% | 1013.6 hPa | 0 mm | - | 951 W/m² | - |
| 1778083240 | 10.56° C | 49% | 1013.8 hPa | 0 mm | - | 881 W/m² | - |
| 1778081224 | 9.44° C | 50% | 1013.4 hPa | 0 mm | - | 429 W/m² | - |
| 1778080316 | 8.89° C | 57% | 1013.6 hPa | 0 mm | - | 402 W/m² | - |
| 1778080013 | 7.78° C | 59% | 1013.5 hPa | 0 mm | - | 294 W/m² | - |
| 1778078498 | 7.78° C | 59% | 1013.5 hPa | 0 mm | - | 291 W/m² | - |
| 1778076685 | 8.33° C | 58% | 1012.9 hPa | 0 mm | - | 319 W/m² | - |
| 1778076382 | 8.33° C | 57% | 1013 hPa | 0 mm | - | 379 W/m² | - |
* Rain latest hour (hover to see other rain measurements)
** Current wind speed in m/s (hover to see current wind gust speed)